createdAt,value
2019-02-17T00:01:32.296Z,13.48
2019-02-17T00:04:00.577Z,13.85
2019-02-17T00:06:28.834Z,13.72
2019-02-17T00:08:57.135Z,14.07
2019-02-17T00:11:25.406Z,13.72
2019-02-17T00:13:53.691Z,13.45
2019-02-17T00:16:21.957Z,13.00
2019-02-17T00:18:50.239Z,13.45
2019-02-17T00:21:18.522Z,14.13
2019-02-17T00:23:46.853Z,13.53
2019-02-17T00:26:15.160Z,13.85
2019-02-17T00:28:43.419Z,14.78
2019-02-17T00:31:11.699Z,14.30
2019-02-17T00:33:39.986Z,14.00
2019-02-17T00:36:08.285Z,15.13
2019-02-17T00:38:36.549Z,13.58
2019-02-17T00:41:04.863Z,14.30
2019-02-17T00:43:33.143Z,13.55
2019-02-17T00:46:01.411Z,13.78
2019-02-17T00:48:29.695Z,13.68
2019-02-17T00:50:57.966Z,13.28
2019-02-17T00:53:26.281Z,14.00
2019-02-17T00:55:54.628Z,13.62
2019-02-17T00:58:22.908Z,13.20
2019-02-17T01:00:51.167Z,13.68
2019-02-17T01:03:19.458Z,14.47
2019-02-17T01:05:47.716Z,13.55
2019-02-17T01:08:15.982Z,14.50
2019-02-17T01:10:44.259Z,13.70
2019-02-17T01:13:12.531Z,13.65
2019-02-17T01:15:40.813Z,13.50
2019-02-17T01:18:09.162Z,13.70
2019-02-17T01:20:37.447Z,12.88
2019-02-17T01:23:05.712Z,12.55
2019-02-17T01:25:34.112Z,14.28
2019-02-17T01:28:02.379Z,13.10
2019-02-17T01:30:30.639Z,13.83
2019-02-17T01:32:58.923Z,13.22
2019-02-17T01:35:28.659Z,12.60
2019-02-17T01:37:58.302Z,14.15
2019-02-17T01:40:26.675Z,13.70
2019-02-17T01:42:54.955Z,12.93
2019-02-17T01:45:23.235Z,13.72
2019-02-17T01:47:51.506Z,12.90
2019-02-17T01:50:19.777Z,14.53
2019-02-17T01:52:48.055Z,13.03
2019-02-17T01:55:16.327Z,12.55
2019-02-17T01:57:44.602Z,13.25
2019-02-17T02:00:14.691Z,11.97
2019-02-17T02:02:43.044Z,12.60
2019-02-17T02:05:11.367Z,12.68
2019-02-17T02:07:39.623Z,13.10
2019-02-17T02:10:09.643Z,13.38
2019-02-17T02:12:37.907Z,12.47
2019-02-17T02:15:09.583Z,11.53
2019-02-17T02:17:37.847Z,11.08
2019-02-17T02:20:09.563Z,11.03
2019-02-17T02:22:37.831Z,11.10
2019-02-17T02:25:07.259Z,10.43
2019-02-17T02:27:35.526Z,10.88
2019-02-17T02:30:05.432Z,10.13
2019-02-17T02:32:33.817Z,11.10
2019-02-17T02:35:02.091Z,10.53
2019-02-17T02:37:30.374Z,10.68
2019-02-17T02:39:58.660Z,10.80
2019-02-17T02:42:26.932Z,11.53
2019-02-17T02:44:55.190Z,11.68
2019-02-17T02:47:24.419Z,12.47
2019-02-17T02:49:52.691Z,14.33
2019-02-17T02:52:20.959Z,14.00
2019-02-17T02:54:49.273Z,13.68
2019-02-17T02:57:17.627Z,13.85
2019-02-17T02:59:52.423Z,15.18
2019-02-17T03:02:15.889Z,16.55
2019-02-17T03:04:44.167Z,16.25
2019-02-17T03:07:12.431Z,16.65
2019-02-17T03:09:40.774Z,16.75
2019-02-17T03:12:09.047Z,16.57
2019-02-17T03:14:37.339Z,16.15
2019-02-17T03:17:05.606Z,16.00
2019-02-17T03:19:33.886Z,16.45
2019-02-17T03:22:02.173Z,16.10
2019-02-17T03:24:30.518Z,16.10
2019-02-17T03:26:58.864Z,14.68
2019-02-17T03:29:27.136Z,16.75
2019-02-17T03:31:55.728Z,16.20
2019-02-17T03:34:24.047Z,16.82
2019-02-17T03:36:52.332Z,15.63
2019-02-17T03:39:20.599Z,16.40
2019-02-17T03:41:48.871Z,16.30
2019-02-17T03:44:17.147Z,16.30
2019-02-17T03:46:45.496Z,15.65
2019-02-17T03:49:13.768Z,15.13
2019-02-17T03:51:42.308Z,15.15
2019-02-17T03:54:10.571Z,15.88
2019-02-17T03:56:38.851Z,15.63
2019-02-17T03:59:07.126Z,16.05
2019-02-17T04:01:35.388Z,16.23
2019-02-17T04:04:03.664Z,18.02
2019-02-17T04:06:32.014Z,16.82
2019-02-17T04:09:00.290Z,15.98
2019-02-17T04:11:28.558Z,16.12
2019-02-17T04:13:56.864Z,16.07
2019-02-17T04:16:25.124Z,15.18
2019-02-17T04:18:53.391Z,14.98
2019-02-17T04:21:21.687Z,15.50
2019-02-17T04:23:49.964Z,16.30
2019-02-17T04:26:18.271Z,15.93
2019-02-17T04:28:46.635Z,16.23
2019-02-17T04:31:14.894Z,15.78
2019-02-17T04:33:43.155Z,16.07
2019-02-17T04:36:11.455Z,15.70
2019-02-17T04:38:39.744Z,17.70
2019-02-17T04:41:07.997Z,16.67
2019-02-17T04:43:36.349Z,16.17
2019-02-17T04:46:04.623Z,16.00
2019-02-17T04:48:32.968Z,16.67
2019-02-17T04:51:01.240Z,16.82
2019-02-17T04:53:29.592Z,18.60
2019-02-17T04:55:57.858Z,18.02
2019-02-17T04:58:26.142Z,19.30
2019-02-17T05:00:54.403Z,20.27
2019-02-17T05:03:22.683Z,20.95
2019-02-17T05:05:50.945Z,21.60
2019-02-17T05:08:19.227Z,21.57
2019-02-17T05:10:47.494Z,22.05
2019-02-17T05:13:15.755Z,21.35
2019-02-17T05:15:44.026Z,21.40
2019-02-17T05:18:12.299Z,21.23
2019-02-17T05:20:40.658Z,21.35
2019-02-17T05:23:28.434Z,22.32
2019-02-17T05:25:56.808Z,20.27
2019-02-17T05:28:25.077Z,21.25
2019-02-17T05:30:53.667Z,20.08
2019-02-17T05:33:22.017Z,22.40
2019-02-17T05:35:50.354Z,21.57
2019-02-17T05:38:18.612Z,18.90
2019-02-17T05:40:46.891Z,19.95
2019-02-17T05:43:15.150Z,21.97
2019-02-17T05:45:43.407Z,19.48
2019-02-17T05:48:11.709Z,20.67
2019-02-17T05:50:40.036Z,18.92
2019-02-17T05:53:08.311Z,20.12
2019-02-17T05:55:36.578Z,20.32
2019-02-17T05:58:05.764Z,21.57
2019-02-17T06:00:34.890Z,20.55
2019-02-17T06:03:03.163Z,19.25
2019-02-17T06:05:31.425Z,21.17
2019-02-17T06:07:59.701Z,19.67
2019-02-17T06:10:28.265Z,21.93
2019-02-17T06:13:15.972Z,20.50
2019-02-17T06:15:44.227Z,20.15
2019-02-17T06:18:12.503Z,22.03
2019-02-17T06:20:40.776Z,20.88
2019-02-17T06:23:09.030Z,21.60
2019-02-17T06:25:37.299Z,19.52
2019-02-17T06:28:06.107Z,20.74
2019-02-17T06:30:34.384Z,21.27
2019-02-17T06:33:02.635Z,22.10
2019-02-17T06:35:30.915Z,21.00
2019-02-17T06:37:59.168Z,21.25
2019-02-17T06:40:27.475Z,21.05
2019-02-17T06:42:55.730Z,20.57
2019-02-17T06:45:23.997Z,20.82
2019-02-17T06:47:52.394Z,23.12
2019-02-17T06:50:20.710Z,21.75
2019-02-17T06:52:48.967Z,20.70
2019-02-17T06:55:18.913Z,20.68
2019-02-17T06:57:47.228Z,21.02
2019-02-17T07:00:17.143Z,22.15
2019-02-17T07:02:45.420Z,22.17
2019-02-17T07:05:30.014Z,20.72
2019-02-17T07:07:58.302Z,20.70
2019-02-17T07:10:26.563Z,21.15
2019-02-17T07:12:54.819Z,20.80
2019-02-17T07:15:23.122Z,20.35
2019-02-17T07:17:51.378Z,20.57
2019-02-17T07:20:19.643Z,20.88
2019-02-17T07:22:47.939Z,21.55
2019-02-17T07:25:16.199Z,21.30
2019-02-17T07:27:44.465Z,20.43
2019-02-17T07:30:12.834Z,20.27
2019-02-17T07:32:41.154Z,20.50
2019-02-17T07:35:09.450Z,20.88
2019-02-17T07:37:37.775Z,19.37
2019-02-17T07:40:07.371Z,20.60
2019-02-17T07:42:35.634Z,22.37
2019-02-17T07:45:05.551Z,20.60
2019-02-17T07:47:33.814Z,20.35
2019-02-17T07:50:02.122Z,21.77
2019-02-17T07:52:30.394Z,21.97
2019-02-17T07:54:58.650Z,21.17
2019-02-17T07:57:26.927Z,21.70
2019-02-17T07:59:55.253Z,22.45
2019-02-17T08:02:23.535Z,23.42
2019-02-17T08:04:51.791Z,24.43
2019-02-17T08:07:20.044Z,22.25
2019-02-17T08:09:48.320Z,23.47
2019-02-17T08:12:16.599Z,24.07
2019-02-17T08:14:44.878Z,22.77
2019-02-17T08:17:13.148Z,23.47
2019-02-17T08:19:41.410Z,23.65
2019-02-17T08:22:09.683Z,24.23
2019-02-17T08:24:38.002Z,23.15
2019-02-17T08:27:06.250Z,22.93
2019-02-17T08:29:34.520Z,22.73
2019-02-17T08:32:02.783Z,24.23
2019-02-17T08:34:31.065Z,22.17
2019-02-17T08:36:59.338Z,23.60
2019-02-17T08:39:27.618Z,24.72
2019-02-17T08:41:55.877Z,22.77
2019-02-17T08:44:24.162Z,24.18
2019-02-17T08:46:52.418Z,25.30
2019-02-17T08:49:20.690Z,22.58
2019-02-17T08:51:48.955Z,24.20
2019-02-17T08:54:17.210Z,23.52
2019-02-17T08:56:45.483Z,23.73
2019-02-17T08:59:13.742Z,24.02
2019-02-17T09:01:42.042Z,26.23
2019-02-17T09:04:10.331Z,24.92
2019-02-17T09:06:38.595Z,27.62
2019-02-17T09:09:06.930Z,24.12
2019-02-17T09:11:54.646Z,24.92
2019-02-17T09:14:22.974Z,27.07
2019-02-17T09:16:51.232Z,28.67
2019-02-17T09:19:19.505Z,27.35
2019-02-17T09:21:47.780Z,27.90
2019-02-17T09:24:16.091Z,27.93
2019-02-17T09:26:44.367Z,29.07
2019-02-17T09:29:12.653Z,28.52
2019-02-17T09:31:40.963Z,30.90
2019-02-17T09:34:09.250Z,28.62
2019-02-17T09:36:37.498Z,28.75
2019-02-17T09:39:08.007Z,29.65
2019-02-17T09:41:36.281Z,28.55
2019-02-17T09:44:04.546Z,27.82
2019-02-17T09:46:32.826Z,27.90
2019-02-17T09:49:01.086Z,26.00
2019-02-17T09:51:29.375Z,25.52
2019-02-17T09:53:57.646Z,26.45
2019-02-17T09:56:26.039Z,26.35
2019-02-17T09:58:54.403Z,27.25
2019-02-17T10:01:22.736Z,26.62
2019-02-17T10:03:51.018Z,25.05
2019-02-17T10:06:19.286Z,24.40
2019-02-17T10:08:47.578Z,24.07
2019-02-17T10:11:15.854Z,24.32
2019-02-17T10:13:44.111Z,23.20
2019-02-17T10:16:12.387Z,22.65
2019-02-17T10:18:40.724Z,22.17
2019-02-17T10:21:09.052Z,23.85
2019-02-17T10:23:37.314Z,23.75
2019-02-17T10:26:05.587Z,23.18
2019-02-17T10:28:42.069Z,23.35
2019-02-17T10:31:03.857Z,25.15
2019-02-17T10:33:32.122Z,23.35
2019-02-17T10:36:00.400Z,25.57
2019-02-17T10:38:28.667Z,24.10
2019-02-17T10:40:56.944Z,22.90
2019-02-17T10:43:25.219Z,25.23
2019-02-17T10:45:53.494Z,22.95
2019-02-17T10:48:21.766Z,22.47
2019-02-17T10:50:50.083Z,23.40
2019-02-17T10:53:18.339Z,23.27
2019-02-17T10:55:46.598Z,22.45
2019-02-17T10:58:14.944Z,24.07
2019-02-17T11:00:43.252Z,24.75
2019-02-17T11:03:11.526Z,22.77
2019-02-17T11:05:39.794Z,22.52
2019-02-17T11:08:08.078Z,22.37
2019-02-17T11:10:36.352Z,22.82
2019-02-17T11:13:04.615Z,22.05
2019-02-17T11:15:32.944Z,22.20
2019-02-17T11:18:01.255Z,22.07
2019-02-17T11:20:29.532Z,22.27
2019-02-17T11:22:57.813Z,22.77
2019-02-17T11:25:26.079Z,22.25
2019-02-17T11:27:54.356Z,21.40
2019-02-17T11:30:22.636Z,22.32
2019-02-17T11:32:57.943Z,20.65
2019-02-17T11:35:20.911Z,21.60
2019-02-17T11:37:49.224Z,20.62
2019-02-17T11:40:17.495Z,20.72
2019-02-17T11:42:45.756Z,20.80
2019-02-17T11:45:20.231Z,20.80
2019-02-17T11:47:48.571Z,20.80
2019-02-17T11:50:16.860Z,21.05
2019-02-17T11:52:45.194Z,19.62
2019-02-17T11:55:14.811Z,20.00
2019-02-17T11:57:43.080Z,20.05
2019-02-17T12:00:14.715Z,20.23
2019-02-17T12:02:42.967Z,19.52
2019-02-17T12:05:12.170Z,19.65
2019-02-17T12:07:40.444Z,21.17
2019-02-17T12:10:10.636Z,19.70
2019-02-17T12:12:39.034Z,20.32
2019-02-17T12:15:12.114Z,18.67
2019-02-17T12:17:40.376Z,19.48
2019-02-17T12:20:30.956Z,19.42
2019-02-17T12:23:00.881Z,18.45
2019-02-17T12:25:30.875Z,21.23
2019-02-17T12:28:00.847Z,19.35
2019-02-17T12:30:29.102Z,19.83
2019-02-17T12:32:57.394Z,18.75
2019-02-17T12:35:25.745Z,18.92
2019-02-17T12:37:54.026Z,19.65
2019-02-17T12:40:22.350Z,19.30
2019-02-17T12:42:51.174Z,20.17
2019-02-17T12:45:19.603Z,19.23
2019-02-17T12:47:57.564Z,18.12
2019-02-17T12:50:17.924Z,19.15
2019-02-17T12:52:47.733Z,17.80
2019-02-17T12:55:16.359Z,18.90
2019-02-17T12:57:44.619Z,19.20
2019-02-17T13:00:16.012Z,17.30
2019-02-17T13:02:44.292Z,17.20
2019-02-17T13:05:12.572Z,18.00
2019-02-17T13:07:42.716Z,18.10
2019-02-17T13:10:11.603Z,17.50
2019-02-17T13:12:39.886Z,18.27
2019-02-17T13:15:10.782Z,16.37
2019-02-17T13:17:39.078Z,16.60
2019-02-17T13:20:10.311Z,18.20
2019-02-17T13:25:09.222Z,17.48
2019-02-17T13:27:37.484Z,18.15
2019-02-17T13:30:09.089Z,18.07
2019-02-17T13:32:37.368Z,16.17
2019-02-17T13:35:05.643Z,17.17
2019-02-17T13:37:33.908Z,18.98
2019-02-17T13:40:02.236Z,17.23
2019-02-17T13:42:30.521Z,15.78
2019-02-17T13:44:58.859Z,17.37
2019-02-17T13:47:27.136Z,17.05
2019-02-17T13:49:55.403Z,17.00
2019-02-17T13:52:23.693Z,16.02
2019-02-17T13:54:52.045Z,17.65
2019-02-17T13:57:20.363Z,17.20
2019-02-17T13:59:48.646Z,17.07
2019-02-17T14:02:16.919Z,18.32
2019-02-17T14:04:45.191Z,17.70
2019-02-17T14:07:13.471Z,17.02
2019-02-17T14:09:41.741Z,16.75
2019-02-17T14:12:10.063Z,16.70
2019-02-17T14:14:38.845Z,16.90
2019-02-17T14:17:07.463Z,17.55
2019-02-17T14:19:35.768Z,16.90
2019-02-17T14:22:04.071Z,17.25
2019-02-17T14:24:32.348Z,16.52
2019-02-17T14:27:00.620Z,15.65
2019-02-17T14:29:28.906Z,17.03
2019-02-17T14:31:57.187Z,17.35
2019-02-17T14:34:25.495Z,17.85
2019-02-17T14:36:53.776Z,17.67
2019-02-17T14:39:22.130Z,16.90
2019-02-17T14:41:50.422Z,16.85
2019-02-17T14:44:18.738Z,15.68
2019-02-17T14:46:47.011Z,16.20
2019-02-17T14:49:15.287Z,14.85
2019-02-17T14:51:43.573Z,15.32
2019-02-17T14:54:11.833Z,16.10
2019-02-17T14:56:40.157Z,15.43
2019-02-17T14:59:08.417Z,15.43
2019-02-17T15:01:36.691Z,15.83
2019-02-17T15:04:08.906Z,14.85
2019-02-17T15:06:35.006Z,14.90
2019-02-17T15:09:05.138Z,15.18
2019-02-17T15:11:33.471Z,15.08
2019-02-17T15:14:01.837Z,14.23
2019-02-17T15:16:30.123Z,14.25
2019-02-17T15:18:58.407Z,13.00
2019-02-17T15:21:26.683Z,13.38
2019-02-17T15:23:55.039Z,12.53
2019-02-17T15:26:23.306Z,13.22
2019-02-17T15:28:51.655Z,12.98
2019-02-17T15:31:19.946Z,12.73
2019-02-17T15:33:48.239Z,13.75
2019-02-17T15:36:16.502Z,12.80
2019-02-17T15:38:44.787Z,13.85
2019-02-17T15:41:13.470Z,12.47
2019-02-17T15:43:41.864Z,12.88
2019-02-17T15:46:10.142Z,12.88
2019-02-17T15:48:38.409Z,12.78
2019-02-17T15:51:06.929Z,12.93
2019-02-17T15:53:35.454Z,12.50
2019-02-17T15:56:03.804Z,12.37
2019-02-17T15:58:32.079Z,12.28
2019-02-17T16:01:00.355Z,11.90
2019-02-17T16:03:28.623Z,11.78
2019-02-17T16:05:56.908Z,11.05
2019-02-17T16:08:25.170Z,11.50
2019-02-17T16:10:53.453Z,12.15
2019-02-17T16:13:21.725Z,10.72
2019-02-17T16:15:50.005Z,11.65
2019-02-17T16:18:18.280Z,11.70
2019-02-17T16:20:46.618Z,11.45
2019-02-17T16:23:14.886Z,12.40
2019-02-17T16:25:43.217Z,11.95
2019-02-17T16:28:11.507Z,11.53
2019-02-17T16:30:39.774Z,12.68
2019-02-17T16:33:08.060Z,11.75
2019-02-17T16:35:36.322Z,12.45
2019-02-17T16:38:04.603Z,12.65
2019-02-17T16:40:32.876Z,11.53
2019-02-17T16:43:01.237Z,11.57
2019-02-17T16:45:29.549Z,11.73
2019-02-17T16:47:57.827Z,10.82
2019-02-17T16:50:28.133Z,11.55
2019-02-17T16:52:56.429Z,10.95
2019-02-17T16:55:24.753Z,10.68
2019-02-17T16:57:53.059Z,10.85
2019-02-17T17:00:22.835Z,10.78
2019-02-17T17:02:55.225Z,11.33
2019-02-17T17:05:24.352Z,10.08
2019-02-17T17:07:52.615Z,11.55
2019-02-17T17:10:21.030Z,11.78
2019-02-17T17:12:49.297Z,11.38
2019-02-17T17:15:17.571Z,10.82
2019-02-17T17:17:45.846Z,10.68
2019-02-17T17:20:16.376Z,12.35
2019-02-17T17:22:44.640Z,11.73
2019-02-17T17:25:13.667Z,11.35
2019-02-17T17:27:41.935Z,10.98
2019-02-17T17:30:17.207Z,12.82
2019-02-17T17:32:45.470Z,11.63
2019-02-17T17:35:13.741Z,13.03
2019-02-17T17:37:42.014Z,12.07
2019-02-17T17:40:11.934Z,11.97
2019-02-17T17:42:40.219Z,12.78
2019-02-17T17:45:14.012Z,12.13
2019-02-17T17:47:42.275Z,11.38
2019-02-17T17:50:13.254Z,12.40
2019-02-17T17:52:41.550Z,11.97
2019-02-17T17:55:11.092Z,12.75
2019-02-17T17:57:39.359Z,11.88
2019-02-17T18:00:11.724Z,11.85
2019-02-17T18:02:39.988Z,12.43
2019-02-17T18:05:09.446Z,12.37
2019-02-17T18:07:38.023Z,11.63
2019-02-17T18:10:09.722Z,12.10
2019-02-17T18:12:38.001Z,12.37
2019-02-17T18:15:09.550Z,13.38
2019-02-17T18:17:37.906Z,12.95
2019-02-17T18:20:13.870Z,13.43
2019-02-17T18:22:42.233Z,12.65
2019-02-17T18:25:13.803Z,14.80
2019-02-17T18:27:42.086Z,13.48
2019-02-17T18:30:16.594Z,12.55
2019-02-17T18:32:45.255Z,12.63
2019-02-17T18:35:19.979Z,13.93
2019-02-17T18:37:43.632Z,13.28
2019-02-17T18:40:14.499Z,12.70
2019-02-17T18:42:43.461Z,13.18
2019-02-17T18:45:13.058Z,13.68
2019-02-17T18:47:41.344Z,13.53
2019-02-17T18:50:12.539Z,14.40
2019-02-17T18:55:10.909Z,12.53
2019-02-17T18:57:49.046Z,13.13
2019-02-17T19:00:12.639Z,13.60
2019-02-17T19:02:40.927Z,14.35
2019-02-17T19:05:11.140Z,14.00
2019-02-17T19:07:39.406Z,14.58
2019-02-17T19:10:11.095Z,13.80
2019-02-17T19:12:39.430Z,13.72
2019-02-17T19:15:14.727Z,13.43
2019-02-17T19:17:43.002Z,13.90
2019-02-17T19:20:20.075Z,13.22
2019-02-17T19:22:48.382Z,13.72
2019-02-17T19:25:16.705Z,14.98
2019-02-17T19:27:44.963Z,13.32
2019-02-17T19:30:14.874Z,13.62
2019-02-17T19:32:43.131Z,14.58
2019-02-17T19:35:13.758Z,15.13
2019-02-17T19:37:42.095Z,14.98
2019-02-17T19:40:12.671Z,14.50
2019-02-17T19:42:40.982Z,15.75
2019-02-17T19:45:11.642Z,14.30
2019-02-17T19:47:39.985Z,15.10
2019-02-17T19:50:10.863Z,14.55
2019-02-17T19:52:39.123Z,14.85
2019-02-17T19:55:09.051Z,14.83
2019-02-17T19:57:37.361Z,16.35
2019-02-17T20:00:18.712Z,17.48
2019-02-17T20:05:20.859Z,14.95
2019-02-17T20:07:49.205Z,15.68
2019-02-17T20:10:17.479Z,16.62
2019-02-17T20:12:45.755Z,15.70
2019-02-17T20:15:14.023Z,17.70
2019-02-17T20:17:42.299Z,17.48
2019-02-17T20:20:10.738Z,16.32
2019-02-17T20:22:39.106Z,14.78
2019-02-17T20:25:07.750Z,16.00
2019-02-17T20:27:36.079Z,14.63
2019-02-17T20:30:12.730Z,15.38
2019-02-17T20:32:41.044Z,16.37
2019-02-17T20:35:09.797Z,16.37
2019-02-17T20:37:38.107Z,16.32
2019-02-17T20:40:11.558Z,15.50
2019-02-17T20:42:39.884Z,15.88
2019-02-17T20:45:09.808Z,15.95
2019-02-17T20:47:38.066Z,16.15
2019-02-17T20:50:12.467Z,16.55
2019-02-17T20:52:40.758Z,16.32
2019-02-17T20:55:12.614Z,15.23
2019-02-17T20:57:41.011Z,15.83
2019-02-17T21:00:22.752Z,15.60
2019-02-17T21:02:51.061Z,14.45
2019-02-17T21:05:19.337Z,15.93
2019-02-17T21:07:47.608Z,15.03
2019-02-17T21:10:15.885Z,15.18
2019-02-17T21:12:44.221Z,14.80
2019-02-17T21:15:14.912Z,14.85
2019-02-17T21:17:43.184Z,14.70
2019-02-17T21:20:11.450Z,15.28
2019-02-17T21:22:39.723Z,15.03
2019-02-17T21:25:12.999Z,14.85
2019-02-17T21:27:41.266Z,15.48
2019-02-17T21:30:29.043Z,14.55
2019-02-17T21:32:57.311Z,13.62
2019-02-17T21:35:26.557Z,13.72
2019-02-17T21:37:54.811Z,14.53
2019-02-17T21:40:23.444Z,14.20
2019-02-17T21:42:51.699Z,14.18
2019-02-17T21:45:19.982Z,14.63
2019-02-17T21:47:48.238Z,13.78
2019-02-17T21:50:16.518Z,16.12
2019-02-17T21:52:44.775Z,15.90
2019-02-17T21:55:14.964Z,14.73
2019-02-17T21:57:43.221Z,16.20
2019-02-17T22:00:17.701Z,13.45
2019-02-17T22:02:45.983Z,15.20
2019-02-17T22:05:14.254Z,16.20
2019-02-17T22:07:42.584Z,14.70
2019-02-17T22:10:13.929Z,15.23
2019-02-17T22:12:42.182Z,14.78
2019-02-17T22:15:13.766Z,14.83
2019-02-17T22:17:42.031Z,14.95
2019-02-17T22:20:11.347Z,16.48
2019-02-17T22:22:39.611Z,15.28
2019-02-17T22:25:09.056Z,15.78
2019-02-17T22:27:37.342Z,15.32
2019-02-17T22:30:08.597Z,13.83
2019-02-17T22:32:36.941Z,15.90
2019-02-17T22:35:05.363Z,15.10
2019-02-17T22:37:33.614Z,15.32
2019-02-17T22:40:01.920Z,14.83
2019-02-17T22:42:30.176Z,14.60
2019-02-17T22:44:58.465Z,16.67
2019-02-17T22:47:26.831Z,14.18
2019-02-17T22:49:55.128Z,14.38
2019-02-17T22:52:23.451Z,16.87
2019-02-17T22:54:51.708Z,15.95
2019-02-17T22:57:19.979Z,15.83
2019-02-17T22:59:48.238Z,16.45
2019-02-17T23:02:16.596Z,15.98
2019-02-17T23:04:44.846Z,14.75
2019-02-17T23:07:13.162Z,15.48
2019-02-17T23:09:41.432Z,15.70
2019-02-17T23:12:09.755Z,15.63
2019-02-17T23:14:38.035Z,14.55
2019-02-17T23:17:06.324Z,14.45
2019-02-17T23:19:34.663Z,14.60
2019-02-17T23:22:02.915Z,14.98
2019-02-17T23:24:31.195Z,15.50
2019-02-17T23:26:59.456Z,14.13
2019-02-17T23:29:27.727Z,14.63
2019-02-17T23:31:55.989Z,15.68
2019-02-17T23:34:24.278Z,14.53
2019-02-17T23:36:52.599Z,15.55
2019-02-17T23:39:20.907Z,13.53
2019-02-17T23:41:49.161Z,14.80
2019-02-17T23:44:17.430Z,14.33
2019-02-17T23:46:45.703Z,14.80
2019-02-17T23:49:13.988Z,14.13
2019-02-17T23:51:42.316Z,14.93
2019-02-17T23:54:10.580Z,14.38
2019-02-17T23:56:38.846Z,13.65
2019-02-17T23:59:07.111Z,14.83
